createdAt,value
2022-08-10T00:01:52.294Z,56.69
2022-08-10T00:04:24.665Z,57.66
2022-08-10T00:06:54.309Z,58.83
2022-08-10T00:09:23.921Z,59.31
2022-08-10T00:11:51.869Z,60.48
2022-08-10T00:14:19.859Z,61.41
2022-08-10T00:16:47.832Z,64.96
2022-08-10T00:19:16.581Z,62.88
2022-08-10T00:21:47.227Z,55.61
2022-08-10T00:24:15.231Z,53.93
2022-08-10T00:27:52.986Z,54.75
2022-08-10T00:29:31.644Z,55.90
2022-08-10T00:31:59.811Z,57.03
2022-08-10T00:34:29.866Z,57.99
2022-08-10T00:36:58.120Z,58.67
2022-08-10T00:39:27.576Z,60.09
2022-08-10T00:42:06.517Z,61.07
2022-08-10T00:44:37.423Z,61.74
2022-08-10T00:47:06.883Z,65.50
2022-08-10T00:49:43.538Z,63.18
2022-08-10T00:52:14.413Z,55.59
2022-08-10T00:54:43.474Z,53.81
2022-08-10T00:57:15.929Z,54.91
2022-08-10T00:59:58.468Z,55.95
2022-08-10T01:02:30.907Z,57.10
2022-08-10T01:05:07.868Z,58.40
2022-08-10T01:08:01.339Z,59.50
2022-08-10T01:10:29.158Z,60.33
2022-08-10T01:13:01.231Z,61.26
2022-08-10T01:15:36.913Z,64.70
2022-08-10T01:18:23.646Z,62.53
2022-08-10T01:21:25.472Z,54.68
2022-08-10T01:23:59.341Z,53.23
2022-08-10T01:27:04.602Z,54.49
2022-08-10T01:29:59.857Z,55.92
2022-08-10T01:32:47.986Z,57.27
2022-08-10T01:35:24.644Z,58.41
2022-08-10T01:38:06.680Z,59.53
2022-08-10T01:40:38.685Z,60.81
2022-08-10T01:43:11.089Z,64.69
2022-08-10T01:45:44.966Z,62.39
2022-08-10T01:48:33.316Z,54.71
2022-08-10T01:51:17.969Z,53.57
2022-08-10T01:53:53.441Z,54.58
2022-08-10T01:56:24.681Z,55.82
2022-08-10T01:59:07.726Z,57.07
2022-08-10T02:01:39.561Z,58.46
2022-08-10T02:04:10.892Z,59.72
2022-08-10T02:06:43.500Z,60.72
2022-08-10T02:09:19.089Z,64.47
2022-08-10T02:12:05.180Z,63.52
2022-08-10T02:14:53.489Z,55.78
2022-08-10T02:17:59.126Z,54.25
2022-08-10T02:20:18.710Z,55.22
2022-08-10T02:22:52.155Z,56.80
2022-08-10T02:25:41.774Z,57.91
2022-08-10T02:28:30.104Z,58.95
2022-08-10T02:31:06.300Z,59.80
2022-08-10T02:33:38.058Z,61.12
2022-08-10T02:36:10.354Z,65.37
2022-08-10T02:38:59.422Z,63.61
2022-08-10T02:45:13.075Z,56.79
2022-08-10T02:45:25.766Z,55.18
2022-08-10T02:48:20.021Z,56.51
2022-08-10T02:51:00.069Z,58.33
2022-08-10T02:53:56.531Z,59.67
2022-08-10T02:56:28.811Z,60.99
2022-08-10T02:59:11.836Z,64.59
2022-08-10T03:01:45.002Z,63.53
2022-08-10T03:04:20.963Z,56.31
2022-08-10T03:07:12.179Z,54.51
2022-08-10T03:09:41.690Z,55.65
2022-08-10T03:12:36.419Z,56.95
2022-08-10T03:15:01.597Z,58.12
2022-08-10T03:17:30.385Z,59.75
2022-08-10T03:20:33.463Z,60.77
2022-08-10T03:22:51.870Z,61.07
2022-08-10T03:25:22.288Z,65.51
2022-08-10T03:27:50.769Z,64.26
2022-08-10T03:30:27.422Z,57.45
2022-08-10T03:33:05.442Z,55.62
2022-08-10T03:35:33.794Z,56.27
2022-08-10T03:38:01.899Z,57.62
2022-08-10T03:40:45.798Z,58.90
2022-08-10T03:43:21.665Z,59.96
2022-08-10T03:45:56.471Z,61.02
2022-08-10T03:48:44.716Z,64.94
2022-08-10T03:51:16.888Z,63.15
2022-08-10T03:54:04.368Z,55.90
2022-08-10T03:56:38.960Z,53.97
2022-08-10T03:59:15.131Z,55.18
2022-08-10T04:02:46.139Z,56.43
2022-08-10T04:04:33.626Z,58.08
2022-08-10T04:07:02.705Z,59.35
2022-08-10T04:09:54.168Z,60.34
2022-08-10T04:12:21.286Z,61.07
2022-08-10T04:14:51.988Z,64.25
2022-08-10T04:18:03.253Z,62.60
2022-08-10T04:20:20.476Z,55.24
2022-08-10T04:22:52.192Z,53.63
2022-08-10T04:25:21.469Z,54.53
2022-08-10T04:27:50.255Z,55.73
2022-08-10T04:30:18.680Z,56.78
2022-08-10T04:32:50.172Z,57.70
2022-08-10T04:35:20.814Z,58.39
2022-08-10T04:37:51.240Z,58.96
2022-08-10T04:40:29.056Z,60.12
2022-08-10T04:43:11.268Z,60.90
2022-08-10T04:45:48.894Z,61.61
2022-08-10T04:48:39.955Z,65.21
2022-08-10T04:51:18.436Z,62.68
2022-08-10T04:54:03.793Z,54.95
2022-08-10T04:56:39.716Z,53.76
2022-08-10T04:59:09.521Z,53.89
2022-08-10T05:02:30.001Z,55.14
2022-08-10T05:04:34.973Z,56.09
2022-08-10T05:07:10.763Z,57.70
2022-08-10T05:10:01.423Z,58.67
2022-08-10T05:12:28.070Z,59.74
2022-08-10T05:14:56.420Z,60.47
2022-08-10T05:17:24.257Z,60.84
2022-08-10T05:20:01.503Z,61.50
2022-08-10T05:22:41.787Z,64.86
2022-08-10T05:25:15.054Z,62.73
2022-08-10T05:27:43.916Z,56.37
2022-08-10T05:30:19.778Z,54.34
2022-08-10T05:32:58.516Z,54.88
2022-08-10T05:35:56.568Z,55.66
2022-08-10T05:38:18.433Z,56.70
2022-08-10T05:40:48.062Z,57.97
2022-08-10T05:43:22.311Z,58.76
2022-08-10T05:46:19.387Z,59.47
2022-08-10T05:48:59.651Z,60.15
2022-08-10T05:51:30.465Z,60.65
2022-08-10T05:54:04.525Z,61.35
2022-08-10T05:56:55.099Z,64.65
2022-08-10T06:00:34.922Z,61.77
2022-08-10T06:02:35.042Z,55.06
2022-08-10T06:05:06.724Z,53.62
2022-08-10T06:07:38.557Z,54.10
2022-08-10T06:10:10.431Z,55.06
2022-08-10T06:12:54.239Z,55.95
2022-08-10T06:15:52.149Z,56.94
2022-08-10T06:18:16.902Z,57.46
2022-08-10T06:20:46.376Z,58.23
2022-08-10T06:23:14.621Z,58.81
2022-08-10T06:26:11.502Z,59.20
2022-08-10T06:28:35.317Z,59.73
2022-08-10T06:31:05.818Z,60.27
2022-08-10T06:33:37.446Z,60.97
2022-08-10T06:36:08.280Z,61.35
2022-08-10T06:38:39.702Z,61.38
2022-08-10T06:41:19.566Z,61.63
2022-08-10T06:43:56.054Z,61.58
2022-08-10T06:46:25.701Z,61.84
2022-08-10T06:48:59.233Z,62.08
2022-08-10T06:51:30.818Z,64.87
2022-08-10T06:54:02.966Z,61.28
2022-08-10T06:56:36.806Z,54.92
2022-08-10T06:59:22.020Z,52.61
2022-08-10T07:01:57.563Z,52.97
2022-08-10T07:04:33.907Z,53.57
2022-08-10T07:07:06.632Z,54.32
2022-08-10T07:09:40.188Z,53.46
2022-08-10T07:12:09.679Z,52.62
2022-08-10T07:14:40.725Z,52.00
2022-08-10T07:17:15.564Z,52.43
2022-08-10T07:19:52.423Z,50.97
2022-08-10T07:23:27.212Z,50.35
2022-08-10T07:25:15.249Z,50.50
2022-08-10T07:27:58.588Z,49.63
2022-08-10T07:30:32.227Z,48.90
2022-08-10T07:33:01.678Z,47.64
2022-08-10T07:35:41.492Z,46.08
2022-08-10T07:38:22.874Z,46.24
2022-08-10T07:40:53.211Z,45.13
2022-08-10T07:43:24.957Z,43.56
2022-08-10T07:45:53.076Z,42.73
2022-08-10T07:48:27.842Z,41.84
2022-08-10T07:50:59.537Z,42.29
2022-08-10T07:53:32.694Z,41.53
2022-08-10T07:56:13.220Z,42.61
2022-08-10T07:58:57.711Z,42.62
2022-08-10T08:01:31.908Z,42.50
2022-08-10T08:04:11.378Z,43.67
2022-08-10T08:06:42.522Z,43.02
2022-08-10T08:09:11.276Z,43.58
2022-08-10T08:11:42.587Z,43.94
2022-08-10T08:14:13.101Z,44.72
2022-08-10T08:16:44.599Z,45.04
2022-08-10T08:19:37.596Z,45.83
2022-08-10T08:24:07.809Z,45.68
2022-08-10T08:24:52.615Z,45.72
2022-08-10T08:27:21.732Z,45.54
2022-08-10T08:29:51.355Z,45.74
2022-08-10T08:32:23.051Z,45.67
2022-08-10T08:35:02.525Z,44.95
2022-08-10T08:38:30.351Z,44.92
2022-08-10T08:40:32.893Z,45.66
2022-08-10T08:43:12.329Z,46.10
2022-08-10T08:45:48.215Z,45.55
2022-08-10T08:50:05.278Z,45.76
2022-08-10T08:52:24.970Z,46.54
2022-08-10T08:56:03.922Z,46.62
2022-08-10T08:58:17.742Z,46.40
2022-08-10T09:01:23.225Z,46.26
2022-08-10T09:04:21.559Z,45.21
2022-08-10T09:08:01.188Z,45.68
2022-08-10T09:10:58.478Z,45.77
2022-08-10T09:13:41.375Z,45.82
2022-08-10T09:16:43.193Z,45.67
2022-08-10T09:19:35.434Z,45.85
2022-08-10T09:22:19.468Z,45.95
2022-08-10T09:25:02.850Z,45.88
2022-08-10T09:27:43.524Z,45.95
2022-08-10T09:30:18.520Z,45.64
2022-08-10T09:36:24.974Z,45.58
2022-08-10T09:36:29.580Z,45.93
2022-08-10T09:39:01.189Z,45.23
2022-08-10T09:41:47.837Z,45.12
2022-08-10T09:44:57.209Z,44.61
2022-08-10T09:48:01.573Z,44.77
2022-08-10T09:51:09.328Z,44.52
2022-08-10T09:53:33.158Z,44.72
2022-08-10T09:56:28.530Z,44.75
2022-08-10T09:59:26.715Z,44.74
2022-08-10T10:02:16.342Z,44.59
2022-08-10T10:04:56.162Z,44.55
2022-08-10T10:07:27.041Z,44.07
2022-08-10T10:10:17.153Z,43.84
2022-08-10T10:13:06.174Z,44.07
2022-08-10T10:15:40.713Z,43.83
2022-08-10T10:18:44.273Z,43.15
2022-08-10T10:21:54.258Z,43.87
2022-08-10T10:24:25.089Z,43.89
2022-08-10T10:27:25.616Z,43.60
2022-08-10T10:30:03.735Z,43.78
2022-08-10T10:33:13.074Z,43.49
2022-08-10T10:35:52.383Z,43.38
2022-08-10T10:38:26.879Z,42.84
2022-08-10T10:41:16.901Z,42.61
2022-08-10T10:43:44.565Z,42.64
2022-08-10T10:46:15.237Z,42.12
2022-08-10T10:49:03.822Z,41.97
2022-08-10T10:51:45.107Z,42.13
2022-08-10T10:54:40.614Z,41.89
2022-08-10T10:57:58.857Z,42.28
2022-08-10T11:00:22.116Z,42.27
2022-08-10T11:03:30.238Z,42.27
2022-08-10T11:06:09.598Z,42.41
2022-08-10T11:08:43.846Z,42.30
2022-08-10T11:12:00.373Z,42.30
2022-08-10T11:14:33.357Z,41.92
2022-08-10T11:17:31.113Z,41.95
2022-08-10T11:20:04.801Z,42.05
2022-08-10T11:22:51.341Z,40.93
2022-08-10T11:25:22.890Z,41.02
2022-08-10T11:28:21.306Z,41.08
2022-08-10T11:30:55.052Z,41.18
2022-08-10T11:34:04.019Z,41.26
2022-08-10T11:36:37.031Z,41.24
2022-08-10T11:39:35.094Z,41.30
2022-08-10T11:42:26.614Z,41.39
2022-08-10T11:45:10.301Z,41.48
2022-08-10T11:47:46.525Z,41.70
2022-08-10T11:50:25.413Z,41.80
2022-08-10T11:53:22.054Z,41.82
2022-08-10T11:55:56.236Z,41.98
2022-08-10T11:58:47.506Z,41.72
2022-08-10T12:01:20.795Z,42.01
2022-08-10T12:03:50.104Z,41.91
2022-08-10T12:06:33.994Z,41.75
2022-08-10T12:10:10.084Z,42.02
2022-08-10T12:12:01.167Z,41.86
2022-08-10T12:14:34.727Z,41.64
2022-08-10T12:17:08.228Z,41.89
2022-08-10T12:20:04.040Z,41.89
2022-08-10T12:22:38.796Z,41.10
2022-08-10T12:25:11.872Z,40.96
2022-08-10T12:28:07.445Z,40.79
2022-08-10T12:30:40.747Z,40.61
2022-08-10T12:33:23.120Z,40.40
2022-08-10T12:36:18.559Z,40.70
2022-08-10T12:39:06.973Z,41.11
2022-08-10T12:41:43.669Z,40.85
2022-08-10T12:44:18.346Z,41.01
2022-08-10T12:47:27.254Z,41.05
2022-08-10T12:50:30.340Z,40.91
2022-08-10T12:53:18.811Z,40.61
2022-08-10T12:55:49.863Z,40.14
2022-08-10T12:59:00.248Z,39.81
2022-08-10T13:01:17.245Z,39.79
2022-08-10T13:04:22.711Z,39.96
2022-08-10T13:06:49.965Z,40.76
2022-08-10T13:09:25.175Z,40.88
2022-08-10T13:12:36.432Z,40.83
2022-08-10T13:15:45.023Z,40.84
2022-08-10T13:18:17.870Z,40.70
2022-08-10T13:20:52.784Z,40.72
2022-08-10T13:23:30.021Z,40.77
2022-08-10T13:26:00.924Z,40.74
2022-08-10T13:28:45.581Z,40.62
2022-08-10T13:32:03.224Z,40.90
2022-08-10T13:34:42.371Z,40.59
2022-08-10T13:37:13.682Z,40.56
2022-08-10T13:39:59.441Z,40.49
2022-08-10T13:42:33.900Z,40.62
2022-08-10T13:45:15.512Z,40.39
2022-08-10T13:47:48.712Z,40.68
2022-08-10T13:50:33.691Z,40.58
2022-08-10T13:53:15.119Z,40.66
2022-08-10T13:55:55.194Z,40.54
2022-08-10T13:58:31.796Z,40.64
2022-08-10T14:01:01.771Z,40.65
2022-08-10T14:03:36.251Z,40.72
2022-08-10T14:06:06.947Z,40.66
2022-08-10T14:08:38.023Z,40.67
2022-08-10T14:11:12.369Z,40.55
2022-08-10T14:13:45.549Z,40.70
2022-08-10T14:16:13.765Z,40.62
2022-08-10T14:18:45.094Z,40.41
2022-08-10T14:21:14.851Z,39.94
2022-08-10T14:23:52.946Z,39.88
2022-08-10T14:26:29.128Z,40.03
2022-08-10T14:29:10.795Z,40.36
2022-08-10T14:32:01.499Z,39.87
2022-08-10T14:36:15.458Z,39.31
2022-08-10T14:37:37.617Z,39.10
2022-08-10T14:40:15.833Z,39.23
2022-08-10T14:42:51.442Z,39.31
2022-08-10T14:45:26.496Z,39.31
2022-08-10T14:48:01.204Z,39.35
2022-08-10T14:50:33.501Z,39.76
2022-08-10T14:53:20.208Z,39.93
2022-08-10T14:56:02.317Z,39.86
2022-08-10T14:58:35.638Z,39.98
2022-08-10T15:01:08.218Z,39.87
2022-08-10T15:03:59.202Z,39.40
2022-08-10T15:06:32.186Z,39.60
2022-08-10T15:09:18.807Z,39.46
2022-08-10T15:12:15.402Z,39.28
2022-08-10T15:14:45.069Z,38.80
2022-08-10T15:17:35.181Z,38.83
2022-08-10T15:20:24.956Z,38.71
2022-08-10T15:23:03.924Z,38.47
2022-08-10T15:25:36.767Z,38.80
2022-08-10T15:28:08.272Z,38.84
2022-08-10T15:30:43.857Z,39.04
2022-08-10T15:33:59.498Z,38.96
2022-08-10T15:37:02.348Z,38.89
2022-08-10T15:40:21.328Z,38.28
2022-08-10T15:42:55.266Z,38.04
2022-08-10T15:45:26.570Z,37.95
2022-08-10T15:48:03.181Z,37.94
2022-08-10T15:50:40.109Z,37.87
2022-08-10T15:53:49.196Z,38.09
2022-08-10T15:56:30.238Z,38.06
2022-08-10T15:59:24.980Z,38.04
2022-08-10T16:02:04.513Z,37.84
2022-08-10T16:04:59.610Z,38.06
2022-08-10T16:07:49.062Z,38.14
2022-08-10T16:10:28.235Z,38.12
2022-08-10T16:13:50.858Z,37.95
2022-08-10T16:16:03.036Z,37.97
2022-08-10T16:18:34.613Z,37.63
2022-08-10T16:21:06.801Z,37.73
2022-08-10T16:23:41.015Z,38.02
2022-08-10T16:26:14.810Z,38.34
2022-08-10T16:28:58.070Z,38.51
2022-08-10T16:31:29.296Z,38.69
2022-08-10T16:34:00.333Z,38.78
2022-08-10T16:36:43.061Z,38.76
2022-08-10T16:39:56.965Z,38.81
2022-08-10T16:42:16.623Z,38.85
2022-08-10T16:45:01.737Z,38.82
2022-08-10T16:47:32.262Z,38.65
2022-08-10T16:50:09.583Z,38.67
2022-08-10T16:52:39.770Z,38.83
2022-08-10T16:55:23.933Z,38.85
2022-08-10T16:58:04.995Z,38.98
2022-08-10T17:00:34.277Z,39.10
2022-08-10T17:03:22.387Z,39.20
2022-08-10T17:06:01.499Z,39.37
2022-08-10T17:08:48.078Z,39.57
2022-08-10T17:11:19.242Z,39.60
2022-08-10T17:13:47.979Z,39.90
2022-08-10T17:16:17.578Z,39.82
2022-08-10T17:18:48.332Z,39.83
2022-08-10T17:21:25.767Z,40.05
2022-08-10T17:23:58.098Z,40.12
2022-08-10T17:26:37.565Z,40.24
2022-08-10T17:29:59.098Z,40.35
2022-08-10T17:32:28.251Z,40.42
2022-08-10T17:35:01.145Z,40.43
2022-08-10T17:37:35.004Z,40.29
2022-08-10T17:40:09.136Z,40.20
2022-08-10T17:42:39.946Z,40.27
2022-08-10T17:45:45.977Z,40.36
2022-08-10T17:48:08.104Z,40.45
2022-08-10T17:50:40.842Z,40.56
2022-08-10T17:53:16.231Z,40.61
2022-08-10T17:55:48.322Z,40.63
2022-08-10T17:58:21.902Z,40.59
2022-08-10T18:01:40.293Z,40.73
2022-08-10T18:04:02.232Z,40.82
2022-08-10T18:06:31.400Z,40.77
2022-08-10T18:09:03.893Z,40.75
2022-08-10T18:11:34.945Z,40.81
2022-08-10T18:14:06.186Z,40.84
2022-08-10T18:16:35.103Z,40.93
2022-08-10T18:19:13.606Z,41.05
2022-08-10T18:21:44.357Z,41.21
2022-08-10T18:24:20.197Z,41.27
2022-08-10T18:26:51.877Z,41.45
2022-08-10T18:29:24.235Z,41.47
2022-08-10T18:32:01.852Z,41.60
2022-08-10T18:34:31.802Z,41.74
2022-08-10T18:37:00.843Z,41.80
2022-08-10T18:39:34.180Z,41.91
2022-08-10T18:42:11.796Z,41.98
2022-08-10T18:44:48.184Z,42.13
2022-08-10T18:47:20.275Z,42.02
2022-08-10T18:50:00.886Z,42.15
2022-08-10T18:52:32.165Z,42.06
2022-08-10T18:55:14.184Z,41.97
2022-08-10T18:58:18.369Z,41.92
2022-08-10T19:01:01.095Z,41.85
2022-08-10T19:03:54.178Z,41.94
2022-08-10T19:06:37.778Z,42.01
2022-08-10T19:09:47.539Z,42.19
2022-08-10T19:12:36.630Z,42.12
2022-08-10T19:15:19.723Z,42.19
2022-08-10T19:18:29.346Z,42.33
2022-08-10T19:21:15.387Z,42.48
2022-08-10T19:24:01.791Z,42.64
2022-08-10T19:26:41.624Z,42.76
2022-08-10T19:30:08.343Z,42.94
2022-08-10T19:32:31.561Z,43.03
2022-08-10T19:35:25.146Z,43.30
2022-08-10T19:38:33.164Z,43.55
2022-08-10T19:41:32.130Z,43.89
2022-08-10T19:44:27.577Z,44.27
2022-08-10T19:47:21.107Z,44.69
2022-08-10T19:49:59.733Z,44.55
2022-08-10T19:52:41.358Z,44.99
2022-08-10T19:55:15.792Z,45.34
2022-08-10T19:58:26.624Z,45.79
2022-08-10T20:01:01.837Z,45.64
2022-08-10T20:03:39.910Z,45.54
2022-08-10T20:06:18.788Z,45.78
2022-08-10T20:09:10.829Z,46.49
2022-08-10T20:11:59.086Z,47.15
2022-08-10T20:14:46.880Z,47.57
2022-08-10T20:17:51.590Z,48.20
2022-08-10T20:20:34.541Z,48.18
2022-08-10T20:23:16.322Z,48.58
2022-08-10T20:25:51.150Z,48.78
2022-08-10T20:28:32.604Z,49.28
2022-08-10T20:31:19.789Z,49.38
2022-08-10T20:34:01.517Z,49.39
2022-08-10T20:49:22.484Z,50.51
2022-08-10T20:51:57.956Z,50.40
2022-08-10T20:54:36.724Z,50.22
2022-08-10T20:57:54.856Z,50.29
2022-08-10T21:00:42.665Z,50.41
2022-08-10T21:03:31.431Z,50.87
2022-08-10T21:06:41.023Z,51.29
2022-08-10T21:09:31.509Z,51.26
2022-08-10T21:12:15.629Z,51.34
2022-08-10T21:15:07.335Z,51.77
2022-08-10T21:17:51.142Z,51.76
2022-08-10T21:20:39.741Z,52.19
2022-08-10T21:23:16.841Z,52.51
2022-08-10T21:26:13.917Z,53.55
2022-08-10T21:29:00.286Z,53.56
2022-08-10T21:31:51.713Z,53.34
2022-08-10T21:34:54.250Z,53.10
2022-08-10T21:37:57.023Z,53.73
2022-08-10T21:40:37.729Z,54.30
2022-08-10T21:43:48.700Z,54.60
2022-08-10T21:47:02.902Z,54.93
2022-08-10T21:50:16.204Z,55.31
2022-08-10T21:53:22.546Z,55.79
2022-08-10T21:56:46.241Z,56.37
2022-08-10T21:59:56.565Z,56.56
2022-08-10T22:02:50.188Z,56.73
2022-08-10T22:05:47.700Z,56.78
2022-08-10T22:08:38.568Z,56.90
2022-08-10T22:11:28.631Z,56.92
2022-08-10T22:14:16.113Z,56.97
2022-08-10T22:18:00.701Z,56.94
2022-08-10T22:20:27.112Z,56.94
2022-08-10T22:23:35.123Z,57.31
2022-08-10T22:27:00.567Z,57.67
2022-08-10T22:29:55.083Z,57.89
2022-08-10T22:33:04.288Z,58.24
2022-08-10T22:36:20.839Z,58.64
2022-08-10T22:40:11.867Z,58.85
2022-08-10T22:42:58.957Z,59.16
2022-08-10T22:45:53.737Z,59.10
2022-08-10T22:48:41.143Z,59.34
2022-08-10T22:51:16.641Z,59.32
2022-08-10T22:54:09.653Z,59.42
2022-08-10T22:56:57.982Z,59.51
2022-08-10T22:59:31.423Z,59.78
2022-08-10T23:02:10.586Z,59.94
2022-08-10T23:04:47.487Z,60.27
2022-08-10T23:07:18.624Z,60.51
2022-08-10T23:09:51.549Z,60.68
2022-08-10T23:12:35.619Z,60.64
2022-08-10T23:15:26.475Z,60.68
2022-08-10T23:18:16.521Z,61.12
2022-08-10T23:20:47.110Z,61.46
2022-08-10T23:23:23.727Z,65.18
2022-08-10T23:25:57.504Z,62.59
2022-08-10T23:28:58.078Z,56.07
2022-08-10T23:32:01.543Z,53.76
2022-08-10T23:34:06.640Z,53.62
2022-08-10T23:36:39.084Z,54.04
2022-08-10T23:39:26.038Z,54.60
2022-08-10T23:42:03.078Z,55.10
2022-08-10T23:44:35.482Z,55.67
2022-08-10T23:47:04.956Z,56.73
2022-08-10T23:49:35.791Z,57.04
2022-08-10T23:52:18.523Z,56.96
2022-08-10T23:54:50.020Z,57.22
2022-08-10T23:57:21.756Z,57.32
2022-08-10T23:59:53.036Z,57.37
